createdAt,value
2022-08-24T00:01:33.527Z,71.70
2022-08-24T00:04:02.150Z,71.73
2022-08-24T00:06:32.301Z,71.64
2022-08-24T00:09:00.484Z,71.73
2022-08-24T00:11:28.625Z,72.00
2022-08-24T00:13:57.161Z,72.02
2022-08-24T00:16:26.927Z,72.07
2022-08-24T00:18:56.350Z,72.21
2022-08-24T00:21:27.165Z,72.18
2022-08-24T00:23:55.309Z,72.32
2022-08-24T00:26:29.009Z,72.23
2022-08-24T00:28:57.938Z,72.38
2022-08-24T00:31:27.823Z,72.33
2022-08-24T00:33:56.466Z,72.52
2022-08-24T00:36:25.598Z,72.07
2022-08-24T00:38:54.679Z,72.44
2022-08-24T00:41:23.262Z,72.72
2022-08-24T00:43:56.502Z,72.70
2022-08-24T00:46:29.697Z,72.63
2022-08-24T00:49:04.284Z,72.53
2022-08-24T00:51:40.682Z,72.74
2022-08-24T00:54:12.704Z,72.98
2022-08-24T00:56:45.181Z,73.14
2022-08-24T00:59:20.770Z,72.67
2022-08-24T01:01:51.002Z,72.71
2022-08-24T01:04:23.539Z,72.93
2022-08-24T01:06:51.800Z,72.63
2022-08-24T01:09:20.082Z,72.97
2022-08-24T01:11:51.246Z,73.16
2022-08-24T01:14:22.454Z,73.14
2022-08-24T01:17:10.453Z,73.26
2022-08-24T01:19:41.541Z,73.01
2022-08-24T01:22:21.508Z,73.02
2022-08-24T01:24:51.067Z,73.38
2022-08-24T01:27:24.879Z,73.47
2022-08-24T01:29:57.447Z,73.63
2022-08-24T01:32:28.113Z,73.51
2022-08-24T01:34:56.661Z,73.40
2022-08-24T01:37:25.370Z,73.56
2022-08-24T01:39:59.214Z,73.70
2022-08-24T01:42:30.040Z,73.70
2022-08-24T01:44:58.370Z,73.68
2022-08-24T01:47:26.391Z,74.06
2022-08-24T01:49:54.773Z,73.95
2022-08-24T01:52:26.105Z,73.92
2022-08-24T01:54:55.691Z,74.12
2022-08-24T01:57:26.117Z,74.12
2022-08-24T01:59:55.171Z,74.11
2022-08-24T02:02:29.032Z,73.80
2022-08-24T02:04:57.748Z,74.59
2022-08-24T02:07:26.219Z,74.21
2022-08-24T02:09:56.432Z,74.11
2022-08-24T02:12:24.578Z,74.54
2022-08-24T02:14:53.896Z,74.60
2022-08-24T02:17:22.286Z,74.34
2022-08-24T02:19:50.295Z,74.55
2022-08-24T02:22:18.273Z,73.76
2022-08-24T02:24:46.360Z,74.48
2022-08-24T02:27:17.322Z,75.12
2022-08-24T02:29:46.294Z,74.77
2022-08-24T02:32:14.790Z,74.40
2022-08-24T02:34:44.120Z,74.53
2022-08-24T02:37:12.386Z,74.51
2022-08-24T02:39:40.647Z,74.54
2022-08-24T02:42:09.182Z,74.61
2022-08-24T02:44:38.850Z,74.99
2022-08-24T02:47:07.544Z,74.98
2022-08-24T02:49:36.625Z,74.84
2022-08-24T02:52:05.346Z,74.51
2022-08-24T02:54:33.472Z,74.87
2022-08-24T02:57:02.342Z,75.41
2022-08-24T02:59:30.365Z,74.98
2022-08-24T03:01:59.743Z,75.19
2022-08-24T03:04:27.885Z,75.08
2022-08-24T03:06:56.002Z,75.08
2022-08-24T03:09:24.026Z,75.15
2022-08-24T03:11:57.458Z,75.18
2022-08-24T03:14:25.643Z,75.45
2022-08-24T03:16:53.778Z,75.43
2022-08-24T03:19:24.208Z,75.75
2022-08-24T03:21:55.367Z,75.92
2022-08-24T03:24:24.157Z,75.29
2022-08-24T03:26:54.573Z,74.85
2022-08-24T03:29:24.101Z,75.68
2022-08-24T03:31:55.502Z,75.44
2022-08-24T03:34:24.947Z,75.67
2022-08-24T03:36:53.022Z,75.50
2022-08-24T03:39:24.191Z,75.49
2022-08-24T03:41:55.103Z,76.19
2022-08-24T03:44:25.402Z,75.93
2022-08-24T03:46:54.342Z,76.23
2022-08-24T03:49:22.755Z,76.23
2022-08-24T03:51:54.883Z,76.07
2022-08-24T03:54:23.081Z,75.94
2022-08-24T03:56:51.247Z,76.14
2022-08-24T03:59:34.751Z,76.19
2022-08-24T04:02:09.553Z,76.12
2022-08-24T04:04:43.159Z,76.23
2022-08-24T04:07:13.866Z,76.60
2022-08-24T04:09:42.997Z,76.34
2022-08-24T04:12:12.213Z,76.11
2022-08-24T04:14:40.498Z,76.37
2022-08-24T04:17:08.952Z,76.06
2022-08-24T04:19:37.105Z,76.47
2022-08-24T04:22:05.175Z,76.41
2022-08-24T04:24:34.775Z,76.85
2022-08-24T04:27:02.757Z,76.31
2022-08-24T04:29:30.957Z,76.61
2022-08-24T04:31:59.890Z,76.63
2022-08-24T04:34:28.047Z,76.62
2022-08-24T04:36:56.181Z,76.67
2022-08-24T04:39:24.200Z,76.96
2022-08-24T04:41:58.979Z,77.04
2022-08-24T04:44:34.316Z,76.51
2022-08-24T04:47:02.633Z,76.91
2022-08-24T04:49:31.604Z,77.50
2022-08-24T04:51:59.791Z,77.12
2022-08-24T04:54:27.840Z,77.41
2022-08-24T04:56:57.400Z,77.33
2022-08-24T04:59:25.838Z,77.55
2022-08-24T05:01:54.539Z,77.20
2022-08-24T05:04:23.191Z,77.80
2022-08-24T05:07:00.293Z,77.58
2022-08-24T05:09:28.778Z,77.58
2022-08-24T05:11:58.469Z,77.89
2022-08-24T05:14:28.949Z,77.86
2022-08-24T05:16:57.329Z,77.89
2022-08-24T05:19:26.070Z,78.10
2022-08-24T05:21:54.572Z,78.24
2022-08-24T05:24:23.382Z,78.12
2022-08-24T05:26:53.286Z,78.20
2022-08-24T05:29:23.546Z,78.33
2022-08-24T05:31:51.597Z,78.55
2022-08-24T05:34:19.876Z,78.28
2022-08-24T05:36:48.184Z,78.56
2022-08-24T05:39:16.441Z,78.54
2022-08-24T05:41:48.354Z,78.70
2022-08-24T05:44:18.704Z,78.73
2022-08-24T05:46:48.235Z,78.86
2022-08-24T05:49:16.996Z,78.73
2022-08-24T05:51:47.455Z,78.89
2022-08-24T05:54:15.581Z,78.96
2022-08-24T05:56:44.768Z,78.98
2022-08-24T05:59:13.946Z,79.12
2022-08-24T06:01:45.528Z,79.12
2022-08-24T06:04:15.806Z,79.05
2022-08-24T06:06:44.003Z,79.19
2022-08-24T06:09:16.869Z,79.34
2022-08-24T06:11:51.156Z,79.15
2022-08-24T06:14:23.893Z,79.30
2022-08-24T06:16:54.732Z,79.19
2022-08-24T06:19:24.454Z,79.32
2022-08-24T06:21:54.197Z,79.15
2022-08-24T06:24:44.687Z,79.32
2022-08-24T06:27:25.500Z,79.24
2022-08-24T06:29:56.642Z,79.15
2022-08-24T06:32:26.059Z,79.18
2022-08-24T06:34:59.024Z,79.16
2022-08-24T06:37:29.345Z,78.97
2022-08-24T06:39:59.178Z,78.94
2022-08-24T06:42:29.420Z,79.05
2022-08-24T06:44:57.323Z,78.85
2022-08-24T06:47:25.392Z,78.94
2022-08-24T06:49:53.496Z,78.89
2022-08-24T06:52:22.958Z,78.87
2022-08-24T06:54:51.227Z,78.71
2022-08-24T06:57:19.221Z,78.65
2022-08-24T06:59:48.210Z,78.70
2022-08-24T07:02:19.002Z,78.49
2022-08-24T07:04:47.219Z,78.46
2022-08-24T07:07:15.422Z,78.46
2022-08-24T07:09:45.541Z,78.40
2022-08-24T07:12:13.456Z,78.39
2022-08-24T07:14:41.554Z,78.37
2022-08-24T07:17:09.485Z,78.40
2022-08-24T07:19:37.911Z,78.44
2022-08-24T07:22:05.998Z,78.17
2022-08-24T07:24:33.994Z,77.95
2022-08-24T07:27:03.429Z,78.21
2022-08-24T07:29:47.223Z,78.12
2022-08-24T07:32:18.542Z,77.94
2022-08-24T07:34:46.780Z,78.02
2022-08-24T07:37:14.726Z,77.61
2022-08-24T07:39:42.794Z,77.79
2022-08-24T07:42:14.975Z,77.75
2022-08-24T07:44:46.952Z,77.63
2022-08-24T07:47:37.088Z,77.77
2022-08-24T07:50:03.251Z,77.66
2022-08-24T07:52:32.542Z,77.54
2022-08-24T07:55:01.435Z,77.39
2022-08-24T07:57:33.665Z,77.25
2022-08-24T08:00:02.696Z,77.30
2022-08-24T08:02:35.106Z,77.23
2022-08-24T08:05:05.107Z,77.06
2022-08-24T08:07:33.086Z,77.02
2022-08-24T08:10:02.445Z,77.02
2022-08-24T08:12:32.093Z,76.98
2022-08-24T08:15:00.141Z,76.94
2022-08-24T08:17:28.350Z,76.86
2022-08-24T08:19:56.532Z,76.84
2022-08-24T08:22:50.614Z,76.65
2022-08-24T08:25:19.368Z,76.45
2022-08-24T08:27:48.771Z,76.50
2022-08-24T08:30:17.140Z,76.52
2022-08-24T08:32:45.245Z,76.19
2022-08-24T08:35:13.979Z,76.42
2022-08-24T08:37:42.828Z,76.19
2022-08-24T08:40:25.708Z,75.97
2022-08-24T08:43:07.589Z,76.08
2022-08-24T08:45:49.151Z,75.85
2022-08-24T08:48:49.514Z,75.75
2022-08-24T08:51:39.602Z,75.59
2022-08-24T08:54:18.115Z,75.49
2022-08-24T08:57:02.032Z,75.22
2022-08-24T08:59:45.733Z,75.20
2022-08-24T09:02:30.260Z,75.11
2022-08-24T09:05:38.649Z,75.14
2022-08-24T09:08:17.435Z,74.90
2022-08-24T09:10:58.035Z,74.92
2022-08-24T09:13:58.568Z,74.52
2022-08-24T09:16:43.090Z,74.39
2022-08-24T09:19:31.525Z,74.31
2022-08-24T09:22:10.618Z,74.47
2022-08-24T09:25:18.978Z,74.08
2022-08-24T09:28:14.682Z,73.99
2022-08-24T09:31:04.870Z,73.44
2022-08-24T09:33:39.437Z,73.25
2022-08-24T09:36:13.188Z,73.60
2022-08-24T09:38:59.360Z,73.46
2022-08-24T09:41:55.848Z,72.90
2022-08-24T09:45:02.072Z,72.92
2022-08-24T09:47:56.808Z,72.79
2022-08-24T09:50:51.282Z,72.28
2022-08-24T09:53:43.683Z,72.18
2022-08-24T09:56:24.790Z,72.02
2022-08-24T09:59:13.147Z,71.76
2022-08-24T10:01:49.877Z,71.66
2022-08-24T10:04:32.305Z,71.21
2022-08-24T10:07:13.145Z,70.77
2022-08-24T10:10:04.560Z,70.68
2022-08-24T10:12:47.129Z,70.21
2022-08-24T10:15:21.549Z,70.14
2022-08-24T10:18:32.322Z,69.86
2022-08-24T10:21:25.989Z,69.42
2022-08-24T10:24:17.028Z,69.19
2022-08-24T10:27:02.977Z,68.56
2022-08-24T10:29:48.949Z,68.38
2022-08-24T10:32:32.153Z,67.66
2022-08-24T10:35:05.797Z,67.53
2022-08-24T10:38:15.344Z,67.41
2022-08-24T10:40:54.570Z,66.64
2022-08-24T10:43:47.437Z,66.66
2022-08-24T10:46:38.890Z,66.10
2022-08-24T10:49:57.280Z,65.84
2022-08-24T10:52:56.867Z,65.22
2022-08-24T10:55:27.954Z,64.78
2022-08-24T10:58:34.208Z,64.38
2022-08-24T11:01:19.161Z,64.20
2022-08-24T11:03:53.988Z,63.35
2022-08-24T11:06:23.391Z,63.28
2022-08-24T11:08:59.095Z,63.17
2022-08-24T11:11:33.677Z,62.80
2022-08-24T11:14:06.423Z,62.44
2022-08-24T11:16:47.982Z,62.21
2022-08-24T11:19:32.792Z,61.90
2022-08-24T11:22:03.784Z,61.58
2022-08-24T11:24:42.277Z,61.09
2022-08-24T11:27:22.228Z,61.12
2022-08-24T11:30:01.153Z,60.87
2022-08-24T11:32:38.846Z,60.35
2022-08-24T11:35:10.891Z,60.23
2022-08-24T11:37:40.462Z,60.09
2022-08-24T11:40:11.053Z,59.31
2022-08-24T11:43:16.903Z,59.05
2022-08-24T11:45:58.501Z,59.39
2022-08-24T11:48:38.180Z,58.85
2022-08-24T11:51:23.948Z,58.74
2022-08-24T11:54:02.769Z,58.35
2022-08-24T11:56:41.260Z,58.17
2022-08-24T11:59:18.921Z,57.74
2022-08-24T12:01:55.071Z,57.61
2022-08-24T12:04:50.600Z,57.38
2022-08-24T12:07:33.025Z,57.14
2022-08-24T12:10:19.369Z,57.13
2022-08-24T12:12:53.518Z,57.04
2022-08-24T12:15:31.727Z,56.46
2022-08-24T12:18:05.817Z,56.36
2022-08-24T12:20:43.069Z,56.62
2022-08-24T12:23:25.799Z,56.04
2022-08-24T12:26:04.484Z,55.87
2022-08-24T12:28:38.016Z,55.67
2022-08-24T12:31:13.266Z,55.83
2022-08-24T12:33:50.235Z,55.53
2022-08-24T12:36:32.363Z,55.15
2022-08-24T12:39:10.048Z,55.34
2022-08-24T12:41:49.308Z,54.88
2022-08-24T12:44:18.612Z,55.08
2022-08-24T12:46:54.712Z,54.87
2022-08-24T12:49:30.173Z,54.73
2022-08-24T12:52:23.890Z,54.73
2022-08-24T12:55:16.352Z,54.83
2022-08-24T12:57:58.438Z,54.38
2022-08-24T13:00:35.040Z,54.18
2022-08-24T13:03:05.990Z,54.28
2022-08-24T13:05:52.012Z,53.97
2022-08-24T13:08:38.098Z,54.08
2022-08-24T13:11:17.064Z,53.85
2022-08-24T13:14:05.962Z,53.93
2022-08-24T13:16:53.847Z,53.73
2022-08-24T13:19:36.280Z,53.67
2022-08-24T13:22:40.015Z,53.39
2022-08-24T13:25:42.743Z,53.40
2022-08-24T13:28:28.845Z,53.42
2022-08-24T13:31:28.427Z,53.12
2022-08-24T13:34:01.209Z,53.23
2022-08-24T13:36:56.435Z,53.15
2022-08-24T13:39:54.679Z,53.11
2022-08-24T13:43:04.266Z,52.81
2022-08-24T13:45:37.848Z,52.98
2022-08-24T13:48:28.057Z,52.83
2022-08-24T13:51:21.597Z,52.84
2022-08-24T13:54:04.034Z,52.77
2022-08-24T13:56:46.852Z,52.57
2022-08-24T13:59:22.607Z,52.79
2022-08-24T14:02:06.588Z,52.51
2022-08-24T14:04:56.317Z,52.39
2022-08-24T14:07:30.572Z,52.39
2022-08-24T14:10:15.552Z,52.40
2022-08-24T14:12:58.793Z,52.04
2022-08-24T14:15:46.581Z,52.40
2022-08-24T14:18:23.312Z,51.84
2022-08-24T14:21:10.115Z,52.09
2022-08-24T14:24:03.996Z,51.92
2022-08-24T14:27:08.402Z,51.64
2022-08-24T14:29:46.962Z,51.68
2022-08-24T14:32:40.326Z,51.46
2022-08-24T14:35:32.747Z,51.42
2022-08-24T14:38:26.387Z,51.44
2022-08-24T14:41:11.560Z,51.11
2022-08-24T14:44:08.572Z,50.48
2022-08-24T14:46:45.540Z,50.79
2022-08-24T14:49:22.441Z,50.72
2022-08-24T14:52:05.138Z,50.08
2022-08-24T14:54:42.638Z,50.21
2022-08-24T14:57:37.087Z,50.02
2022-08-24T15:00:13.904Z,49.94
2022-08-24T15:03:12.150Z,49.72
2022-08-24T15:06:09.501Z,49.16
2022-08-24T15:08:48.437Z,48.77
2022-08-24T15:11:29.622Z,48.68
2022-08-24T15:14:07.337Z,48.46
2022-08-24T15:16:53.423Z,48.12
2022-08-24T15:19:30.412Z,47.79
2022-08-24T15:22:03.868Z,47.65
2022-08-24T15:24:41.070Z,47.27
2022-08-24T15:27:19.905Z,46.99
2022-08-24T15:29:55.185Z,46.68
2022-08-24T15:32:28.233Z,46.65
2022-08-24T15:34:58.727Z,46.69
2022-08-24T15:37:33.111Z,46.39
2022-08-24T15:40:02.778Z,46.24
2022-08-24T15:42:35.500Z,45.78
2022-08-24T15:45:05.828Z,45.67
2022-08-24T15:47:41.531Z,45.54
2022-08-24T15:50:23.840Z,45.41
2022-08-24T15:53:01.517Z,44.86
2022-08-24T15:55:39.283Z,44.85
2022-08-24T15:58:28.485Z,44.87
2022-08-24T16:01:37.619Z,44.94
2022-08-24T16:04:08.323Z,44.85
2022-08-24T16:06:42.583Z,44.67
2022-08-24T16:09:32.826Z,44.47
2022-08-24T16:12:04.810Z,44.28
2022-08-24T16:14:36.411Z,44.26
2022-08-24T16:17:22.229Z,43.90
2022-08-24T16:19:52.947Z,43.96
2022-08-24T16:22:33.131Z,43.81
2022-08-24T16:25:18.535Z,43.74
2022-08-24T16:28:19.030Z,43.76
2022-08-24T16:30:51.188Z,43.27
2022-08-24T16:33:43.320Z,43.30
2022-08-24T16:36:18.171Z,43.26
2022-08-24T16:38:49.514Z,43.21
2022-08-24T16:41:21.278Z,42.73
2022-08-24T16:43:50.314Z,42.93
2022-08-24T16:46:48.119Z,42.74
2022-08-24T16:49:22.282Z,42.96
2022-08-24T16:51:56.737Z,42.88
2022-08-24T16:54:25.030Z,42.59
2022-08-24T16:56:55.659Z,42.61
2022-08-24T16:59:30.904Z,42.39
2022-08-24T17:01:59.174Z,42.59
2022-08-24T17:04:27.644Z,42.53
2022-08-24T17:06:57.977Z,42.42
2022-08-24T17:09:28.488Z,42.50
2022-08-24T17:12:05.278Z,42.37
2022-08-24T17:14:37.676Z,42.41
2022-08-24T17:17:07.064Z,42.54
2022-08-24T17:19:35.572Z,42.26
2022-08-24T17:22:03.744Z,42.34
2022-08-24T17:24:33.844Z,42.15
2022-08-24T17:27:05.306Z,42.17
2022-08-24T17:29:33.656Z,42.25
2022-08-24T17:32:01.944Z,42.13
2022-08-24T17:34:32.388Z,41.89
2022-08-24T17:37:02.111Z,42.03
2022-08-24T17:39:30.360Z,42.12
2022-08-24T17:42:00.405Z,42.03
2022-08-24T17:44:33.390Z,42.08
2022-08-24T17:47:03.833Z,41.93
2022-08-24T17:49:32.319Z,42.12
2022-08-24T17:52:01.161Z,42.05
2022-08-24T17:54:29.533Z,42.04
2022-08-24T17:56:58.463Z,42.02
2022-08-24T17:59:32.358Z,41.94
2022-08-24T18:02:06.184Z,42.01
2022-08-24T18:04:36.486Z,41.85
2022-08-24T18:07:11.764Z,41.95
2022-08-24T18:09:46.126Z,42.04
2022-08-24T18:12:14.239Z,41.85
2022-08-24T18:14:43.669Z,41.98
2022-08-24T18:17:20.073Z,41.88
2022-08-24T18:19:54.301Z,41.91
2022-08-24T18:22:22.431Z,41.96
2022-08-24T18:24:50.409Z,42.04
2022-08-24T18:27:22.880Z,41.84
2022-08-24T18:29:54.942Z,41.88
2022-08-24T18:32:39.569Z,41.94
2022-08-24T18:35:15.057Z,41.89
2022-08-24T18:37:43.459Z,41.93
2022-08-24T18:40:12.574Z,42.06
2022-08-24T18:42:44.925Z,41.97
2022-08-24T18:45:15.043Z,42.20
2022-08-24T18:47:43.341Z,42.01
2022-08-24T18:50:12.204Z,42.11
2022-08-24T18:52:43.125Z,42.04
2022-08-24T18:55:15.014Z,41.93
2022-08-24T18:57:43.168Z,42.00
2022-08-24T19:00:13.134Z,41.76
2022-08-24T19:02:45.080Z,42.09
2022-08-24T19:05:21.378Z,42.37
2022-08-24T19:07:51.312Z,42.10
2022-08-24T19:10:23.661Z,42.30
2022-08-24T19:12:56.282Z,42.32
2022-08-24T19:15:32.618Z,42.28
2022-08-24T19:18:11.252Z,42.42
2022-08-24T19:20:46.033Z,42.51
2022-08-24T19:23:20.095Z,42.55
2022-08-24T19:25:49.223Z,42.38
2022-08-24T19:28:17.358Z,42.38
2022-08-24T19:30:46.850Z,42.54
2022-08-24T19:33:21.011Z,42.64
2022-08-24T19:35:49.293Z,42.76
2022-08-24T19:38:18.508Z,42.91
2022-08-24T19:40:49.849Z,43.01
2022-08-24T19:43:18.076Z,42.59
2022-08-24T19:46:06.340Z,42.93
2022-08-24T19:48:37.569Z,42.96
2022-08-24T19:51:08.813Z,42.90
2022-08-24T19:53:38.525Z,42.80
2022-08-24T19:56:07.977Z,43.27
2022-08-24T19:58:45.277Z,43.20
2022-08-24T20:01:18.471Z,43.23
2022-08-24T20:03:48.117Z,43.29
2022-08-24T20:06:17.773Z,43.12
2022-08-24T20:08:48.410Z,43.42
2022-08-24T20:11:17.623Z,43.18
2022-08-24T20:13:46.094Z,43.20
2022-08-24T20:16:18.004Z,43.55
2022-08-24T20:18:47.909Z,43.51
2022-08-24T20:21:16.941Z,43.55
2022-08-24T20:23:45.759Z,43.67
2022-08-24T20:26:14.830Z,43.65
2022-08-24T20:28:46.739Z,43.79
2022-08-24T20:31:15.196Z,43.90
2022-08-24T20:33:43.604Z,43.89
2022-08-24T20:36:22.907Z,43.98
2022-08-24T20:38:51.056Z,43.87
2022-08-24T20:41:19.389Z,44.05
2022-08-24T20:43:47.386Z,43.96
2022-08-24T20:46:15.655Z,44.38
2022-08-24T20:48:44.644Z,44.29
2022-08-24T20:51:15.378Z,44.40
2022-08-24T20:53:44.070Z,44.40
2022-08-24T20:56:16.610Z,44.39
2022-08-24T20:58:44.794Z,44.45
2022-08-24T21:01:12.923Z,44.47
2022-08-24T21:03:40.947Z,44.78
2022-08-24T21:06:10.890Z,44.56
2022-08-24T21:08:49.236Z,44.88
2022-08-24T21:11:17.850Z,45.00
2022-08-24T21:13:45.826Z,44.70
2022-08-24T21:16:15.954Z,44.88
2022-08-24T21:18:44.498Z,44.86
2022-08-24T21:21:12.515Z,45.33
2022-08-24T21:23:44.079Z,45.10
2022-08-24T21:26:16.279Z,45.06
2022-08-24T21:28:45.031Z,45.25
2022-08-24T21:31:13.087Z,45.26
2022-08-24T21:33:58.517Z,45.43
2022-08-24T21:36:31.912Z,45.28
2022-08-24T21:39:01.439Z,45.57
2022-08-24T21:41:29.569Z,45.84
2022-08-24T21:43:58.138Z,45.58
2022-08-24T21:46:32.849Z,45.70
2022-08-24T21:49:01.433Z,45.97
2022-08-24T21:51:29.832Z,45.84
2022-08-24T21:53:59.717Z,46.26
2022-08-24T21:56:33.165Z,46.26
2022-08-24T21:59:02.937Z,46.61
2022-08-24T22:01:30.997Z,46.60
2022-08-24T22:04:01.504Z,46.66
2022-08-24T22:06:31.802Z,46.30
2022-08-24T22:09:00.445Z,46.53
2022-08-24T22:11:30.802Z,46.34
2022-08-24T22:13:59.613Z,47.10
2022-08-24T22:16:27.737Z,47.00
2022-08-24T22:18:55.805Z,47.29
2022-08-24T22:21:29.470Z,47.31
2022-08-24T22:23:58.156Z,47.37
2022-08-24T22:26:27.075Z,47.19
2022-08-24T22:28:57.165Z,47.17
2022-08-24T22:31:27.911Z,47.47
2022-08-24T22:33:58.171Z,47.51
2022-08-24T22:36:27.789Z,47.34
2022-08-24T22:38:56.130Z,47.83
2022-08-24T22:41:24.668Z,47.75
2022-08-24T22:44:14.288Z,47.66
2022-08-24T22:46:42.638Z,47.57
2022-08-24T22:49:12.282Z,47.87
2022-08-24T22:51:41.425Z,47.96
2022-08-24T22:54:10.610Z,48.23
2022-08-24T22:56:41.443Z,48.14
2022-08-24T22:59:15.779Z,48.19
2022-08-24T23:01:46.006Z,48.61
2022-08-24T23:04:16.540Z,48.26
2022-08-24T23:06:44.730Z,48.39
2022-08-24T23:09:13.572Z,49.01
2022-08-24T23:11:41.925Z,49.12
2022-08-24T23:14:12.455Z,49.04
2022-08-24T23:16:44.749Z,49.23
2022-08-24T23:19:30.223Z,49.46
2022-08-24T23:21:58.791Z,48.97
2022-08-24T23:24:26.758Z,49.28
2022-08-24T23:26:55.430Z,49.23
2022-08-24T23:29:25.212Z,49.62
2022-08-24T23:31:53.974Z,49.33
2022-08-24T23:34:22.667Z,49.23
2022-08-24T23:36:51.742Z,49.19
2022-08-24T23:39:21.291Z,49.42
2022-08-24T23:41:50.845Z,49.90
2022-08-24T23:44:21.887Z,50.37
2022-08-24T23:46:54.326Z,49.92
2022-08-24T23:49:24.333Z,49.89
2022-08-24T23:51:53.321Z,50.20
2022-08-24T23:54:22.070Z,50.17
2022-08-24T23:56:51.093Z,50.34
2022-08-24T23:59:21.242Z,50.32
